Hualapai, Arizona
Current Conditions -  °F | °C
As of 1:54 PM on Saturday 20 Dec 2014 (Local Time) from KGCN Reporting Station
Clear Clear  
Wind Chill:   Ceiling: Unl
Heat Index:   Visibility: 10mi
Dew Point: -5°   Wind: 8mph
Humidity: 45%   Direction: 230°SW
Pressure: 30.13"   Gusts: NA
Location:  35.9°N, 113.11°W
Report Text: KGCN 202054Z 23007KT 10SM CLR 06/M05 A3013 RMK AO2 SLP186 T00611050 56020
Loading
Personal Weather Stations






























Interactive Weather Map New forecast layout! Learn more

10-Day Weather Forecast

Advertisements
Track Severe Weather on mobile